Rincon, Arizona
Current Conditions -  °F | °C
As of 8:58 PM on Saturday 24 Jan 2015 (Local Time) from KDMA Reporting Station
Clear Clear  
Wind Chill: 56°   Ceiling: Unl
Heat Index: 56°   Visibility: 10mi
Dew Point: 11°   Wind: 15mph
Humidity: 16%   Direction: 120°ESE
Pressure: 30.06"   Gusts: NA
Location:  32.2086°N, 110.558°W
Report Text: KDMA 250358Z AUTO 12013KT 10SM CLR 13/M12 A3006 RMK AO2 SLP163 T01331119 $
Loading
Personal Weather Stations






























Interactive Weather Map New forecast layout! Learn more

10-Day Weather Forecast

Advertisements
Track Severe Weather on mobile